Time;durP1;ratioP1;P1;durP2;ratioP2;P2;SDS_P1;SDS_P2;PMS_P1;PMS_P2;Temp;Humidity;BMP_temperature;BMP_pressure;BME280_temperature;BME280_humidity;BME280_pressure;Samples;Min_cycle;Max_cycle;Signal;HPM_P1;HPM_P2
2023/12/25 06:43:17;;;;;;;12.57;1.50;;;;;;;8.22;100.00;100319.03;4984425;28;20076;-75
2023/12/25 06:46:02;;;;;;;7.40;1.50;;;;;;;8.20;100.00;100326.13;4960725;28;20115;-74
2023/12/25 06:48:47;;;;;;;6.38;1.83;;;;;;;8.17;100.00;100327.13;4967437;28;20058;-75
2023/12/25 06:51:35;;;;;;;6.18;1.42;;;;;;;8.15;100.00;100326.34;4982621;28;20046;-74
2023/12/25 06:54:21;;;;;;;7.20;1.67;;;;;;;8.14;100.00;100327.25;4989097;28;20312;-73
2023/12/25 06:57:09;;;;;;;9.40;1.90;;;;;;;8.15;100.00;100337.75;4988418;28;20061;-74
2023/12/25 06:59:57;;;;;;;6.85;1.92;;;;;;;8.15;100.00;100347.44;4984947;28;20141;-75
2023/12/25 07:02:42;;;;;;;8.15;1.98;;;;;;;8.13;100.00;100346.66;4972513;28;20073;-74
2023/12/25 07:05:28;;;;;;;9.15;2.28;;;;;;;8.13;100.00;100357.19;4988039;28;20050;-74
2023/12/25 07:08:13;;;;;;;13.10;3.28;;;;;;;8.12;100.00;100355.50;4984894;28;20144;-75
2023/12/25 07:11:01;;;;;;;6.38;1.85;;;;;;;8.10;100.00;100354.69;4983176;28;20082;-75
2023/12/25 07:13:47;;;;;;;6.38;1.60;;;;;;;8.11;100.00;100364.28;4978358;28;20132;-75
2023/12/25 07:16:32;;;;;;;13.85;2.53;;;;;;;8.10;100.00;100363.47;4980961;28;20126;-74
2023/12/25 07:19:18;;;;;;;4.18;1.63;;;;;;;8.09;100.00;100355.59;4982941;28;20042;-74
2023/12/25 07:22:04;;;;;;;9.00;1.85;;;;;;;8.06;100.00;100350.47;4970698;28;20054;-74
2023/12/25 07:24:50;;;;;;;7.80;1.90;;;;;;;8.04;100.00;100360.22;4986377;28;20050;-73
2023/12/25 07:27:36;;;;;;;7.05;1.40;;;;;;;8.02;100.00;100361.13;4958011;28;20921;-74
2023/12/25 07:30:22;;;;;;;4.72;1.50;;;;;;;8.02;100.00;100365.56;4974600;28;20054;-75
2023/12/25 07:33:07;;;;;;;5.78;1.67;;;;;;;8.02;100.00;100369.03;4989223;28;20049;-75
2023/12/25 07:35:53;;;;;;;6.30;2.20;;;;;;;8.04;100.00;100376.91;4973609;28;20132;-74
2023/12/25 07:38:39;;;;;;;7.65;2.15;;;;;;;8.02;100.00;100384.03;4972099;28;20137;-73
2023/12/25 07:41:24;;;;;;;7.35;2.60;;;;;;;8.02;100.00;100390.13;4973350;28;20062;-74
2023/12/25 07:44:10;;;;;;;14.27;2.97;;;;;;;8.01;100.00;100401.59;4986842;28;20069;-74
2023/12/25 07:46:55;;;;;;;9.23;2.75;;;;;;;8.01;100.00;100391.06;4986923;28;20050;-73
2023/12/25 07:49:41;;;;;;;6.88;2.25;;;;;;;8.00;100.00;100392.00;4987180;28;20064;-75
2023/12/25 07:52:26;;;;;;;8.20;1.83;;;;;;;7.98;100.00;100396.47;4984109;28;20102;-74
2023/12/25 07:55:12;;;;;;;8.57;2.30;;;;;;;7.97;100.00;100409.72;4972882;28;20062;-75
2023/12/25 07:57:58;;;;;;;9.60;2.28;;;;;;;7.94;100.00;100410.69;4986730;28;20061;-74
2023/12/25 08:00:44;;;;;;;11.25;1.83;;;;;;;7.93;100.00;100424.81;4987300;28;20128;-73
2023/12/25 08:03:29;;;;;;;11.25;1.48;;;;;;;7.91;100.00;100426.66;4987410;28;20058;-75
2023/12/25 08:06:15;;;;;;;10.20;1.48;;;;;;;7.92;100.00;100422.22;4988156;28;20053;-75
2023/12/25 08:09:00;;;;;;;5.97;1.48;;;;;;;7.91;100.00;100415.22;4985139;28;20061;-75
2023/12/25 08:11:45;;;;;;;8.98;2.15;;;;;;;7.93;100.00;100427.44;4984957;28;20144;-73
2023/12/25 08:14:31;;;;;;;7.80;2.13;;;;;;;7.94;100.00;100428.28;4972028;28;20046;-73
2023/12/25 08:17:17;;;;;;;9.00;1.83;;;;;;;7.94;100.00;100441.44;4985998;28;20608;-74
2023/12/25 08:20:03;;;;;;;9.10;1.77;;;;;;;7.94;100.00;100452.00;4984027;28;20046;-74
2023/12/25 08:22:48;;;;;;;8.40;1.88;;;;;;;7.93;100.00;100456.44;4984585;28;20047;-75
2023/12/25 08:25:34;;;;;;;6.53;2.60;;;;;;;7.93;100.00;100451.16;4984780;28;20050;-74
2023/12/25 08:28:19;;;;;;;9.63;1.58;;;;;;;7.95;100.00;100453.75;4986694;28;20050;-74
2023/12/25 08:31:05;;;;;;;8.95;1.70;;;;;;;7.95;100.00;100446.66;4983474;28;20073;-74
2023/12/25 08:33:50;;;;;;;9.05;2.05;;;;;;;7.96;100.00;100440.47;4985724;28;20056;-75
2023/12/25 08:36:35;;;;;;;7.70;1.63;;;;;;;7.97;100.00;100458.03;4961161;28;20062;-75
2023/12/25 08:39:21;;;;;;;13.77;1.70;;;;;;;7.98;100.00;100465.03;4984187;28;20137;-75
2023/12/25 08:42:07;;;;;;;12.82;1.88;;;;;;;7.98;100.00;100457.09;4973500;28;20062;-75
2023/12/25 08:44:52;;;;;;;11.38;1.80;;;;;;;7.99;100.00;100464.09;4985454;28;20081;-75
2023/12/25 08:47:37;;;;;;;10.68;2.28;;;;;;;7.96;100.00;100461.56;4984547;28;21026;-74
2023/12/25 08:50:23;;;;;;;11.07;1.88;;;;;;;7.93;100.00;100464.34;4970294;28;20060;-75
2023/12/25 08:53:08;;;;;;;10.05;1.60;;;;;;;7.88;100.00;100461.91;4984652;28;20072;-74
2023/12/25 08:55:53;;;;;;;6.88;1.60;;;;;;;7.83;100.00;100457.72;4985325;28;21771;-75
2023/12/25 08:58:40;;;;;;;8.00;1.67;;;;;;;7.79;100.00;100458.78;4983621;28;20046;-75
2023/12/25 09:01:26;;;;;;;7.43;1.90;;;;;;;7.73;100.00;100462.47;4984854;28;20046;-75
2023/12/25 09:04:12;;;;;;;7.07;1.45;;;;;;;7.71;100.00;100466.97;4988055;28;20766;-75
2023/12/25 09:06:58;;;;;;;6.45;1.63;;;;;;;7.66;100.00;100459.25;4985982;28;20501;-74
2023/12/25 09:09:43;;;;;;;6.43;1.83;;;;;;;7.61;100.00;100469.09;4973055;28;20068;-75
2023/12/25 09:12:29;;;;;;;11.63;2.50;;;;;;;7.58;100.00;100475.34;4987350;28;20054;-75
2023/12/25 09:15:16;;;;;;;12.80;2.97;;;;;;;7.57;100.00;100485.97;4986222;28;20046;-74
2023/12/25 09:18:01;;;;;;;14.55;2.88;;;;;;;7.54;100.00;100491.34;4972189;28;20046;-74
2023/12/25 09:20:47;;;;;;;7.80;2.90;;;;;;;7.52;100.00;100493.19;4987962;28;20145;-75
2023/12/25 09:23:32;;;;;;;12.30;3.03;;;;;;;7.52;100.00;100498.44;4989783;28;20106;-75
2023/12/25 09:26:21;;;;;;;9.88;2.17;;;;;;;7.51;100.00;100496.75;4990497;28;20061;-75
2023/12/25 09:29:09;;;;;;;8.07;1.50;;;;;;;7.51;100.00;100486.19;4992394;28;20049;-75
2023/12/25 09:31:54;;;;;;;12.48;2.10;;;;;;;7.52;100.00;100493.19;4978457;28;20058;-75
2023/12/25 09:34:40;;;;;;;6.53;1.50;;;;;;;7.54;100.00;100497.47;4982804;28;20515;-75
2023/12/25 09:37:28;;;;;;;5.18;1.42;;;;;;;7.58;100.00;100504.31;4989019;28;20061;-75
2023/12/25 09:40:13;;;;;;;11.07;1.67;;;;;;;7.63;100.00;100500.66;4974251;28;20050;-74
2023/12/25 09:43:01;;;;;;;6.25;1.90;;;;;;;7.67;100.00;100504.91;4989457;28;20034;-75
2023/12/25 09:45:46;;;;;;;10.07;2.45;;;;;;;7.71;100.00;100499.47;4989418;28;21521;-74
2023/12/25 09:48:32;;;;;;;11.85;2.40;;;;;;;7.77;100.00;100501.00;4975653;28;20061;-73
2023/12/25 09:51:19;;;;;;;7.95;1.88;;;;;;;7.82;100.00;100498.16;4974141;28;20046;-73
2023/12/25 09:54:07;;;;;;;11.05;2.10;;;;;;;7.85;100.00;100505.97;4989717;28;20050;-74
2023/12/25 09:56:55;;;;;;;7.60;1.55;;;;;;;7.90;100.00;100519.81;4986638;28;20245;-74
2023/12/25 09:59:41;;;;;;;10.57;2.00;;;;;;;7.92;100.00;100512.72;4988131;28;20716;-75
2023/12/25 10:02:27;;;;;;;8.70;1.77;;;;;;;7.94;100.00;100521.41;4990736;28;20049;-75
2023/12/25 10:05:13;;;;;;;12.98;1.60;;;;;;;7.96;100.00;100513.44;4984027;28;20038;-75
2023/12/25 10:07:58;;;;;;;5.60;1.40;;;;;;;7.99;100.00;100518.59;4989315;28;20046;-75
2023/12/25 10:10:45;;;;;;;11.95;2.13;;;;;;;7.99;100.00;100532.63;4987636;28;20058;-74
2023/12/25 10:13:31;;;;;;;6.60;1.48;;;;;;;8.01;100.00;100525.50;4985266;28;20061;-75
2023/12/25 10:16:17;;;;;;;11.82;1.75;;;;;;;8.00;100.00;100521.16;4989618;28;20089;-74
2023/12/25 10:19:03;;;;;;;12.45;1.67;;;;;;;8.05;100.00;100517.50;4988654;28;20050;-75
2023/12/25 10:21:53;;;;;;;9.10;1.95;;;;;;;8.06;100.00;100516.56;4970105;28;20138;-75
2023/12/25 10:24:39;;;;;;;6.95;1.48;;;;;;;8.07;100.00;100510.38;4988239;28;20070;-75
2023/12/25 10:27:24;;;;;;;5.30;1.77;;;;;;;8.08;100.00;100517.38;4986906;28;21697;-74
2023/12/25 10:30:17;;;;;;;8.10;2.13;;;;;;;8.09;100.00;100527.00;4987397;28;20145;-74
2023/12/25 10:33:10;;;;;;;9.95;2.22;;;;;;;8.08;100.00;100523.50;4988049;28;20061;-76
2023/12/25 10:36:07;;;;;;;10.32;3.00;;;;;;;8.12;100.00;100516.34;4984757;28;20038;-75
2023/12/25 10:38:52;;;;;;;11.90;3.08;;;;;;;8.14;100.00;100522.41;4986441;28;21977;-75
2023/12/25 10:41:38;;;;;;;10.75;2.30;;;;;;;8.18;100.00;100512.56;4985324;28;20390;-74
2023/12/25 10:44:24;;;;;;;16.00;3.28;;;;;;;8.24;100.00;100533.44;4971439;28;20051;-74
2023/12/25 10:47:10;;;;;;;12.75;2.67;;;;;;;8.28;100.00;100529.72;4988458;28;20770;-75
2023/12/25 10:49:56;;;;;;;6.15;2.10;;;;;;;8.35;100.00;100527.72;4971950;28;20184;-74
2023/12/25 10:52:43;;;;;;;16.13;2.35;;;;;;;8.41;100.00;100524.81;4983917;28;20057;-75
2023/12/25 10:55:41;;;;;;;10.88;2.22;;;;;;;8.46;100.00;100511.44;4970437;28;20054;-75
2023/12/25 10:58:28;;;;;;;8.00;2.22;;;;;;;8.48;100.00;100521.00;4985962;28;20042;-74
2023/12/25 11:01:14;;;;;;;13.07;1.88;;;;;;;8.52;100.00;100521.75;4986901;28;20049;-75
2023/12/25 11:04:00;;;;;;;8.82;2.10;;;;;;;8.56;100.00;100518.09;4989103;28;20050;-75
2023/12/25 11:06:45;;;;;;;5.13;1.85;;;;;;;8.58;100.00;100531.19;4986854;28;20101;-73
2023/12/25 11:09:31;;;;;;;8.68;1.98;;;;;;;8.58;100.00;100531.19;4988413;28;20049;-75
2023/12/25 11:12:17;;;;;;;12.68;2.47;;;;;;;8.59;100.00;100532.91;4987011;28;20349;-75
2023/12/25 11:15:05;;;;;;;9.18;2.05;;;;;;;8.59;100.00;100539.06;4958741;28;20101;-75
2023/12/25 11:17:51;;;;;;;8.00;1.75;;;;;;;8.59;100.00;100536.41;4988649;28;20062;-75
2023/12/25 11:20:40;;;;;;;8.32;1.70;;;;;;;8.60;100.00;100532.00;4988327;28;20106;-75
2023/12/25 11:23:25;;;;;;;7.22;1.23;;;;;;;8.61;100.00;100517.88;4986841;28;20049;-72
2023/12/25 11:26:12;;;;;;;8.20;1.67;;;;;;;8.62;100.00;100523.09;4991026;28;20500;-75
2023/12/25 11:29:08;;;;;;;7.88;1.42;;;;;;;8.64;100.00;100515.09;4975854;28;20076;-75
2023/12/25 11:31:54;;;;;;;8.45;2.35;;;;;;;8.66;100.00;100518.56;4990582;28;20093;-74
2023/12/25 11:34:40;;;;;;;12.32;2.42;;;;;;;8.69;100.00;100518.41;4991560;28;20576;-73
2023/12/25 11:37:26;;;;;;;11.70;2.15;;;;;;;8.71;100.00;100505.16;4979278;28;20073;-74
2023/12/25 11:40:11;;;;;;;7.53;2.17;;;;;;;8.72;100.00;100513.00;4992677;28;20659;-74
2023/12/25 11:42:56;;;;;;;9.32;2.00;;;;;;;8.75;100.00;100525.19;4991360;28;20060;-75
2023/12/25 11:45:43;;;;;;;8.48;1.88;;;;;;;8.78;100.00;100520.66;4982250;28;20480;-74
2023/12/25 11:48:32;;;;;;;8.25;1.80;;;;;;;8.74;100.00;100503.25;4987858;28;20113;-75
2023/12/25 11:51:25;;;;;;;7.00;1.42;;;;;;;8.71;100.00;100495.44;4979589;28;20693;-73
2023/12/25 11:54:11;;;;;;;6.75;1.67;;;;;;;8.69;100.00;100486.75;4983006;28;20181;-74
2023/12/25 11:56:58;;;;;;;7.93;1.75;;;;;;;8.67;100.00;100484.16;4967504;28;20050;-74
2023/12/25 11:59:44;;;;;;;5.13;1.30;;;;;;;8.66;100.00;100471.88;4970543;28;20548;-74
2023/12/25 12:02:31;;;;;;;7.85;1.25;;;;;;;8.66;100.00;100476.34;4956827;28;20073;-74
2023/12/25 12:05:16;;;;;;;6.20;1.60;;;;;;;8.66;100.00;100471.06;4974800;28;20062;-73
2023/12/25 12:08:02;;;;;;;6.68;1.63;;;;;;;8.62;100.00;100464.19;4987814;28;20038;-75
2023/12/25 12:10:47;;;;;;;8.93;1.85;;;;;;;8.61;100.00;100480.94;4976881;28;20089;-75
2023/12/25 12:13:34;;;;;;;6.03;1.52;;;;;;;8.59;100.00;100483.63;4997080;28;20042;-75
2023/12/25 12:16:19;;;;;;;7.13;1.48;;;;;;;8.58;100.00;100494.25;4995498;28;20083;-75
2023/12/25 12:19:05;;;;;;;7.07;1.70;;;;;;;8.54;100.00;100504.94;4982839;28;20092;-75
2023/12/25 12:21:50;;;;;;;5.15;1.35;;;;;;;8.52;100.00;100512.09;4998641;28;20026;-76
2023/12/25 12:24:36;;;;;;;8.68;2.03;;;;;;;8.51;100.00;100505.06;4997736;28;20065;-75
2023/12/25 12:27:21;;;;;;;8.85;1.80;;;;;;;8.50;100.00;100500.69;4989592;28;20065;-75
2023/12/25 12:30:08;;;;;;;6.35;1.63;;;;;;;8.51;100.00;100509.47;4992377;28;20054;-74
2023/12/25 12:32:53;;;;;;;6.88;1.63;;;;;;;8.50;100.00;100513.88;4991069;28;20123;-74
2023/12/25 12:35:45;;;;;;;4.70;1.58;;;;;;;8.50;100.00;100503.31;4987946;28;20050;-74
2023/12/25 12:38:30;;;;;;;11.05;1.88;;;;;;;8.51;100.00;100507.69;4982533;28;20054;-76
2023/12/25 12:41:16;;;;;;;8.75;2.13;;;;;;;8.52;100.00;100506.81;4990690;28;20049;-75
2023/12/25 12:44:01;;;;;;;5.07;1.65;;;;;;;8.54;100.00;100499.66;4974186;28;20101;-75
2023/12/25 12:46:47;;;;;;;10.32;1.83;;;;;;;8.53;100.00;100513.78;4962516;28;20053;-75
2023/12/25 12:49:32;;;;;;;7.63;1.85;;;;;;;8.55;100.00;100508.44;4986707;28;20038;-75
2023/12/25 12:52:18;;;;;;;3.05;1.85;;;;;;;8.56;100.00;100512.81;4977000;28;20051;-78
2023/12/25 12:55:04;;;;;;;5.75;1.80;;;;;;;8.59;100.00;100511.78;4992133;28;20139;-75
2023/12/25 12:57:49;;;;;;;8.82;1.70;;;;;;;8.61;100.00;100512.59;4976687;28;20089;-73
2023/12/25 13:00:35;;;;;;;11.73;1.73;;;;;;;8.63;100.00;100508.13;4988814;28;20591;-75
2023/12/25 13:03:20;;;;;;;6.85;1.90;;;;;;;8.65;100.00;100514.19;4988212;28;20092;-75
2023/12/25 13:06:06;;;;;;;8.45;2.15;;;;;;;8.66;100.00;100514.13;4987837;28;20052;-76
2023/12/25 13:08:54;;;;;;;7.43;1.88;;;;;;;8.68;100.00;100503.50;4988785;28;20409;-75
2023/12/25 13:11:39;;;;;;;5.30;1.50;;;;;;;8.69;100.00;100486.75;4990276;28;20065;-75
2023/12/25 13:14:25;;;;;;;8.02;2.05;;;;;;;8.71;100.00;100479.59;4987702;28;20067;-75
2023/12/25 13:17:10;;;;;;;10.00;2.28;;;;;;;8.72;100.00;100481.31;4973926;28;20102;-75
2023/12/25 13:19:56;;;;;;;8.70;1.85;;;;;;;8.72;100.00;100465.47;4978122;28;20102;-75
2023/12/25 13:22:41;;;;;;;5.43;1.90;;;;;;;8.72;100.00;100449.66;4987115;28;20058;-74
2023/12/25 13:25:27;;;;;;;8.07;1.63;;;;;;;8.74;100.00;100463.66;4960071;28;20046;-74
2023/12/25 13:28:13;;;;;;;9.15;1.80;;;;;;;8.75;100.00;100473.28;4987056;28;20047;-74
2023/12/25 13:30:58;;;;;;;5.38;1.70;;;;;;;8.75;100.00;100475.03;4989541;28;20054;-76
2023/12/25 13:33:46;;;;;;;4.15;1.63;;;;;;;8.74;100.00;100468.94;4974493;28;20065;-74
2023/12/25 13:36:31;;;;;;;4.95;1.35;;;;;;;8.74;100.00;100473.34;4987937;28;20629;-76
2023/12/25 13:39:17;;;;;;;4.45;1.30;;;;;;;8.76;100.00;100466.22;4986579;28;20116;-75
2023/12/25 13:42:02;;;;;;;11.43;1.98;;;;;;;8.75;100.00;100481.19;4989787;28;20054;-75
2023/12/25 13:44:48;;;;;;;6.00;1.42;;;;;;;8.74;100.00;100482.13;4987595;28;20038;-75
2023/12/25 13:47:33;;;;;;;7.60;1.92;;;;;;;8.76;100.00;100482.91;4988630;28;20128;-74
2023/12/25 13:50:19;;;;;;;8.38;1.60;;;;;;;8.77;100.00;100489.91;4987775;28;20062;-75
2023/12/25 13:53:05;;;;;;;5.78;1.58;;;;;;;8.78;100.00;100478.41;4987861;28;20137;-74
2023/12/25 13:55:51;;;;;;;2.70;1.40;;;;;;;8.77;100.00;100479.34;4986059;28;20077;-76
2023/12/25 13:58:37;;;;;;;11.80;2.10;;;;;;;8.77;100.00;100476.69;4972974;28;20058;-76
2023/12/25 14:01:22;;;;;;;5.47;1.73;;;;;;;8.75;100.00;100475.03;4985038;28;20130;-75
2023/12/25 14:04:07;;;;;;;7.35;1.90;;;;;;;8.73;100.00;100479.53;4987693;28;20058;-74
2023/12/25 14:06:53;;;;;;;5.50;1.50;;;;;;;8.70;100.00;100485.81;4988359;28;20489;-75
2023/12/25 14:09:39;;;;;;;2.75;1.20;;;;;;;8.68;100.00;100491.16;4987008;28;20050;-75
2023/12/25 14:12:25;;;;;;;5.53;1.50;;;;;;;8.67;100.00;100501.78;4994239;28;20049;-74
2023/12/25 14:15:10;;;;;;;6.93;1.75;;;;;;;8.64;100.00;100496.63;4980246;28;20054;-74
2023/12/25 14:17:56;;;;;;;5.45;1.83;;;;;;;8.59;100.00;100493.31;4979392;28;20046;-75
2023/12/25 14:20:42;;;;;;;7.35;2.00;;;;;;;8.54;100.00;100510.22;4978916;28;20147;-75
2023/12/25 14:23:27;;;;;;;8.98;1.92;;;;;;;8.52;100.00;100495.38;4982655;28;20817;-75
2023/12/25 14:26:12;;;;;;;8.38;1.73;;;;;;;8.49;100.00;100485.78;4984353;28;20072;-75
2023/12/25 14:28:58;;;;;;;5.50;1.60;;;;;;;8.48;100.00;100483.19;4992524;28;21715;-76
2023/12/25 14:31:43;;;;;;;5.80;1.70;;;;;;;8.44;100.00;100477.19;4980730;28;20054;-75
2023/12/25 14:34:29;;;;;;;9.35;3.72;;;;;;;8.41;100.00;100472.06;5001456;28;20064;-74
2023/12/25 14:37:15;;;;;;;5.85;1.92;;;;;;;8.41;100.00;100486.09;5007037;28;20051;-74
2023/12/25 14:40:00;;;;;;;3.17;1.55;;;;;;;8.41;100.00;100480.81;4992983;28;20613;-74
2023/12/25 14:42:47;;;;;;;3.53;1.67;;;;;;;8.42;100.00;100481.69;4979071;28;20046;-75
2023/12/25 14:45:32;;;;;;;5.00;1.55;;;;;;;8.42;100.00;100498.38;4991596;28;20042;-74
2023/12/25 14:48:18;;;;;;;3.95;1.48;;;;;;;8.42;100.00;100486.97;4997436;28;20056;-76
2023/12/25 14:51:04;;;;;;;4.57;1.50;;;;;;;8.41;100.00;100499.28;4996265;28;20074;-75
2023/12/25 14:53:52;;;;;;;5.78;1.25;;;;;;;8.42;100.00;100506.31;4986912;28;20068;-74
2023/12/25 14:56:37;;;;;;;5.45;2.03;;;;;;;8.40;100.00;100502.00;4990987;28;20698;-74
2023/12/25 14:59:23;;;;;;;8.10;1.63;;;;;;;8.40;100.00;100491.47;4993042;28;20050;-73
2023/12/25 15:02:08;;;;;;;7.03;1.92;;;;;;;8.38;100.00;100488.00;4988567;28;20067;-75
2023/12/25 15:04:59;;;;;;;11.25;4.35;;;;;;;8.38;100.00;100486.22;4993092;28;20125;-75
2023/12/25 15:07:45;;;;;;;8.07;2.63;;;;;;;8.38;100.00;100495.91;4984083;28;20090;-75
2023/12/25 15:10:30;;;;;;;10.55;2.53;;;;;;;8.38;100.00;100493.28;4988439;28;20070;-74
2023/12/25 15:13:16;;;;;;;6.35;2.53;;;;;;;8.37;100.00;100492.44;4990573;28;21100;-76
2023/12/25 15:16:03;;;;;;;3.85;1.65;;;;;;;8.37;100.00;100496.84;4963080;28;20078;-74
2023/12/25 15:18:48;;;;;;;8.77;3.15;;;;;;;8.37;100.00;100491.56;4987720;28;21257;-75
2023/12/25 15:21:34;;;;;;;16.17;4.70;;;;;;;8.35;100.00;100490.78;4977912;28;20069;-75
2023/12/25 15:24:19;;;;;;;13.23;3.35;;;;;;;8.33;100.00;100493.47;4975489;28;20146;-76
2023/12/25 15:27:05;;;;;;;16.05;5.07;;;;;;;8.33;100.00;100487.34;4990067;28;20573;-75
2023/12/25 15:29:50;;;;;;;14.20;3.85;;;;;;;8.33;100.00;100484.72;4988513;28;20061;-74
2023/12/25 15:32:36;;;;;;;12.23;3.88;;;;;;;8.32;100.00;100480.38;4989993;28;20048;-75
2023/12/25 15:35:23;;;;;;;12.52;3.75;;;;;;;8.30;100.00;100485.69;4992116;28;20054;-75
2023/12/25 15:38:08;;;;;;;15.38;4.57;;;;;;;8.29;100.00;100489.28;4987974;28;20043;-75
2023/12/25 15:40:55;;;;;;;11.30;3.40;;;;;;;8.28;100.00;100491.03;4991004;28;20054;-76
2023/12/25 15:43:40;;;;;;;14.52;5.00;;;;;;;8.26;100.00;100484.97;4991455;28;20060;-76
2023/12/25 15:46:27;;;;;;;13.73;3.88;;;;;;;8.25;100.00;100478.00;4990422;28;20138;-75
2023/12/25 15:49:13;;;;;;;7.80;3.10;;;;;;;8.23;100.00;100469.25;4978131;28;20109;-74
2023/12/25 15:51:58;;;;;;;10.77;3.80;;;;;;;8.22;100.00;100466.72;4987417;28;20041;-74
2023/12/25 15:54:45;;;;;;;17.00;4.78;;;;;;;8.20;100.00;100464.13;4985752;28;20046;-76
2023/12/25 15:57:31;;;;;;;14.95;4.35;;;;;;;8.18;100.00;100454.56;4993280;28;20030;-75
2023/12/25 16:00:16;;;;;;;7.88;3.55;;;;;;;8.17;100.00;100455.50;4991177;28;20061;-74
2023/12/25 16:03:03;;;;;;;12.32;3.30;;;;;;;8.13;100.00;100455.59;4990733;28;20046;-75
2023/12/25 16:05:49;;;;;;;8.05;3.40;;;;;;;8.15;100.00;100466.09;4986330;28;20042;-75
2023/12/25 16:08:34;;;;;;;5.53;3.03;;;;;;;8.12;100.00;100467.06;4974689;28;20054;-75
2023/12/25 16:11:19;;;;;;;5.40;2.25;;;;;;;8.12;100.00;100466.22;4990920;28;20120;-74
2023/12/25 16:14:05;;;;;;;7.13;1.95;;;;;;;8.12;100.00;100464.44;4971320;28;20109;-75
2023/12/25 16:16:51;;;;;;;8.48;2.92;;;;;;;8.12;100.00;100456.53;4977748;28;20038;-75
2023/12/25 16:19:42;;;;;;;8.73;1.88;;;;;;;8.11;100.00;100459.22;4986834;28;20054;-74
2023/12/25 16:22:30;;;;;;;6.03;2.40;;;;;;;8.09;100.00;100448.75;4964910;28;20050;-74
2023/12/25 16:25:19;;;;;;;5.97;2.10;;;;;;;8.09;100.00;100447.88;4981616;28;20158;-75
2023/12/25 16:28:05;;;;;;;7.10;1.95;;;;;;;8.09;100.00;100443.47;4973750;28;20058;-75
2023/12/25 16:30:51;;;;;;;6.93;2.05;;;;;;;8.07;100.00;100447.94;4962336;28;20398;-74
2023/12/25 16:33:36;;;;;;;8.88;3.35;;;;;;;8.08;100.00;100443.53;4978037;28;20058;-75
2023/12/25 16:36:23;;;;;;;9.60;3.10;;;;;;;8.08;100.00;100440.91;4979276;28;20732;-75
2023/12/25 16:39:09;;;;;;;15.60;3.22;;;;;;;8.06;100.00;100440.13;4976440;28;20050;-75
2023/12/25 16:41:54;;;;;;;14.75;4.38;;;;;;;8.08;100.00;100448.81;4964135;28;20058;-75
2023/12/25 16:44:40;;;;;;;7.40;2.88;;;;;;;8.09;100.00;100445.25;4982990;28;20058;-76
2023/12/25 16:47:25;;;;;;;9.95;2.75;;;;;;;8.07;100.00;100440.03;4986541;28;20455;-75
2023/12/25 16:50:13;;;;;;;11.23;2.63;;;;;;;8.07;100.00;100447.94;4985224;28;20050;-75
2023/12/25 16:52:58;;;;;;;6.88;3.00;;;;;;;8.09;100.00;100450.53;4970630;28;20046;-74
2023/12/25 16:55:44;;;;;;;8.73;2.10;;;;;;;8.08;100.00;100454.97;4982184;28;20504;-75
2023/12/25 16:58:32;;;;;;;6.38;2.88;;;;;;;8.10;100.00;100452.22;4980427;28;20421;-75
2023/12/25 17:01:18;;;;;;;10.25;2.40;;;;;;;8.10;100.00;100462.78;4984620;28;20445;-76
2023/12/25 17:04:03;;;;;;;8.60;2.63;;;;;;;8.11;100.00;100456.59;4983869;28;20153;-76
2023/12/25 17:06:48;;;;;;;11.60;3.45;;;;;;;8.13;100.00;100458.25;4985776;28;20472;-75
2023/12/25 17:09:34;;;;;;;13.82;4.13;;;;;;;8.14;100.00;100452.06;4990052;28;20843;-76
2023/12/25 17:12:20;;;;;;;10.55;3.58;;;;;;;8.16;100.00;100454.63;4985977;28;20034;-75
2023/12/25 17:15:08;;;;;;;15.07;5.72;;;;;;;8.20;100.00;100447.44;4990527;28;20046;-77
2023/12/25 17:17:54;;;;;;;27.25;9.63;;;;;;;8.21;100.00;100447.38;4978512;28;20440;-74
2023/12/25 17:20:39;;;;;;;20.67;7.38;;;;;;;8.18;100.00;100447.53;4981528;28;20056;-74
2023/12/25 17:23:25;;;;;;;12.20;4.68;;;;;;;8.15;100.00;100440.59;4980300;28;20186;-74
2023/12/25 17:26:18;;;;;;;17.02;6.10;;;;;;;8.14;100.00;100443.28;4969078;28;21538;-75
2023/12/25 17:29:09;;;;;;;17.02;7.13;;;;;;;8.14;100.00;100438.88;4989460;28;20501;-76
2023/12/25 17:31:56;;;;;;;13.70;4.97;;;;;;;8.13;100.00;100441.56;5020483;23;20057;-76
2023/12/25 17:34:41;;;;;;;10.35;3.50;;;;;;;8.17;100.00;100447.56;4990445;28;20399;-75
2023/12/25 17:37:29;;;;;;;7.45;2.83;;;;;;;8.20;100.00;100447.44;5027243;28;20045;-74
2023/12/25 17:40:15;;;;;;;6.68;2.90;;;;;;;8.22;100.00;100435.91;5028255;28;20072;-75
2023/12/25 17:43:01;;;;;;;11.57;3.58;;;;;;;8.25;100.00;100434.91;5008870;28;20075;-75
2023/12/25 17:45:46;;;;;;;13.30;3.47;;;;;;;8.28;100.00;100438.28;5027549;28;20045;-75
2023/12/25 17:48:32;;;;;;;9.35;3.35;;;;;;;8.32;100.00;100430.25;5032895;28;20052;-74
2023/12/25 17:51:17;;;;;;;10.98;3.72;;;;;;;8.34;100.00;100425.75;5026677;28;20045;-74
2023/12/25 17:54:03;;;;;;;13.13;3.92;;;;;;;8.39;100.00;100426.44;5025971;28;20423;-75
2023/12/25 17:56:48;;;;;;;11.10;4.30;;;;;;;8.39;100.00;100415.88;5038172;28;20047;-75
2023/12/25 17:59:37;;;;;;;12.80;4.75;;;;;;;8.41;100.00;100416.66;5035036;28;20066;-76
2023/12/25 18:02:22;;;;;;;8.15;3.00;;;;;;;8.42;100.00;100418.38;5063128;23;20057;-75
2023/12/25 18:05:07;;;;;;;9.35;2.63;;;;;;;8.43;100.00;100406.88;5040164;28;20122;-76
2023/12/25 18:07:53;;;;;;;10.05;4.18;;;;;;;8.48;100.00;100404.91;5035785;28;20055;-76
2023/12/25 18:10:38;;;;;;;11.00;3.78;;;;;;;8.49;100.00;100396.06;5008499;28;20125;-75
2023/12/25 18:13:24;;;;;;;8.55;3.38;;;;;;;8.52;100.00;100395.13;5024833;28;22055;-75
2023/12/25 18:16:12;;;;;;;8.70;2.67;;;;;;;8.53;100.00;100378.34;5028187;28;20052;-74
2023/12/25 18:18:58;;;;;;;9.07;2.75;;;;;;;8.54;100.00;100383.56;5012045;28;20050;-76
2023/12/25 18:21:43;;;;;;;7.88;2.88;;;;;;;8.53;100.00;100381.88;5027859;28;20703;-75
2023/12/25 18:24:31;;;;;;;8.60;2.50;;;;;;;8.53;100.00;100389.78;5019409;28;20038;-75
2023/12/25 18:27:16;;;;;;;11.00;3.00;;;;;;;8.53;100.00;100400.34;5035800;28;20302;-75
2023/12/25 18:30:02;;;;;;;13.00;3.20;;;;;;;8.54;100.00;100388.84;5025781;28;20054;-75
2023/12/25 18:32:48;;;;;;;7.60;2.72;;;;;;;8.52;100.00;100390.72;5029196;28;20075;-75
2023/12/25 18:35:33;;;;;;;11.60;2.67;;;;;;;8.52;100.00;100380.16;5031723;28;20037;-73
2023/12/25 18:38:19;;;;;;;7.07;2.70;;;;;;;8.52;100.00;100380.16;5023675;28;20052;-74
2023/12/25 18:41:04;;;;;;;7.35;2.55;;;;;;;8.52;100.00;100385.44;5030136;28;20048;-76
2023/12/25 18:43:50;;;;;;;11.57;2.63;;;;;;;8.52;100.00;100377.53;5028245;28;20049;-75
2023/12/25 18:46:36;;;;;;;9.30;2.70;;;;;;;8.54;100.00;100372.16;5023836;28;20053;-75
2023/12/25 18:49:21;;;;;;;16.77;6.70;;;;;;;8.56;100.00;100387.00;5017544;28;20053;-75
2023/12/25 18:52:06;;;;;;;8.15;3.08;;;;;;;8.60;100.00;100374.53;5022889;28;20052;-75
2023/12/25 18:54:52;;;;;;;9.98;3.28;;;;;;;8.61;100.00;100373.59;5016030;28;20052;-75
2023/12/25 18:57:37;;;;;;;7.43;2.78;;;;;;;8.62;100.00;100369.19;4997878;28;20046;-72
2023/12/25 19:00:23;;;;;;;9.32;2.20;;;;;;;8.61;100.00;100364.84;4998503;28;20050;-73
2023/12/25 19:03:08;;;;;;;6.05;2.08;;;;;;;8.61;100.00;100356.91;5012189;28;20054;-75
2023/12/25 19:05:53;;;;;;;9.95;2.83;;;;;;;8.62;100.00;100359.50;5004854;28;20057;-75
2023/12/25 19:08:39;;;;;;;8.27;2.38;;;;;;;8.62;100.00;100356.84;4993447;28;20066;-75
2023/12/25 19:11:24;;;;;;;11.00;2.33;;;;;;;8.63;100.00;100365.63;4999689;28;20033;-75
2023/12/25 19:14:10;;;;;;;10.68;2.30;;;;;;;8.62;100.00;100354.22;5001498;28;20073;-76
2023/12/25 19:16:55;;;;;;;7.55;2.33;;;;;;;8.63;100.00;100355.06;4999202;28;20706;-73
2023/12/25 19:19:41;;;;;;;7.93;2.63;;;;;;;8.64;100.00;100356.75;4995143;28;20079;-74
2023/12/25 19:22:26;;;;;;;7.30;2.53;;;;;;;8.66;100.00;100347.84;5004479;28;20128;-73
2023/12/25 19:25:12;;;;;;;9.15;2.20;;;;;;;8.68;100.00;100361.00;4997637;28;20347;-75
2023/12/25 19:27:57;;;;;;;7.88;2.20;;;;;;;8.68;100.00;100355.72;4997741;28;20425;-74
2023/12/25 19:30:43;;;;;;;14.60;5.00;;;;;;;8.66;100.00;100354.94;5012940;28;20053;-74